createdAt,value
2022-08-22T00:03:38.133Z,2.47
2022-08-22T00:20:49.338Z,2.17
2022-08-22T00:58:55.931Z,2.30
2022-08-22T01:04:19.696Z,2.60
2022-08-22T01:09:41.177Z,2.60
2022-08-22T01:21:46.411Z,2.30
2022-08-22T01:32:28.749Z,2.08
2022-08-22T01:37:43.979Z,2.40
2022-08-22T01:48:22.252Z,2.40
2022-08-22T01:53:29.442Z,2.63
2022-08-22T01:58:28.761Z,2.67
2022-08-22T02:04:04.880Z,2.30
2022-08-22T02:09:21.627Z,2.35
2022-08-22T02:14:36.438Z,2.42
2022-08-22T02:20:10.311Z,2.15
2022-08-22T02:25:25.674Z,2.42
2022-08-22T02:30:30.380Z,2.50
2022-08-22T02:35:37.627Z,2.22
2022-08-22T02:40:40.908Z,2.40
2022-08-22T02:51:32.505Z,2.33
2022-08-22T03:02:36.263Z,2.15
2022-08-22T03:07:40.863Z,2.20
2022-08-22T03:13:10.456Z,2.40
2022-08-22T03:18:43.011Z,2.63
2022-08-22T03:23:46.552Z,2.28
2022-08-22T03:28:59.539Z,2.65
2022-08-22T03:34:20.183Z,2.58
2022-08-22T03:39:35.280Z,3.08
2022-08-22T03:45:18.915Z,2.78
2022-08-22T03:56:23.116Z,2.67
2022-08-22T04:30:49.139Z,3.17
2022-08-22T06:50:34.189Z,2.15
2022-08-22T06:55:29.972Z,1.75
2022-08-22T07:00:22.517Z,1.80
2022-08-22T07:05:20.752Z,1.80
2022-08-22T07:10:17.848Z,2.13
2022-08-22T07:15:40.113Z,1.83
2022-08-22T07:20:45.032Z,1.70
2022-08-22T07:25:54.152Z,1.63
2022-08-22T07:30:56.366Z,1.67
2022-08-22T07:36:00.680Z,1.70
2022-08-22T07:41:15.333Z,2.40
2022-08-22T07:46:41.181Z,1.90
2022-08-22T07:51:49.185Z,2.35
2022-08-22T07:56:58.198Z,2.15
2022-08-22T08:01:59.826Z,1.77
2022-08-22T08:06:56.513Z,1.90
2022-08-22T08:11:53.065Z,1.88
2022-08-22T08:17:19.060Z,2.00
2022-08-22T08:22:19.772Z,1.90
2022-08-22T08:27:42.653Z,2.00
2022-08-22T08:32:38.713Z,1.80
2022-08-22T08:37:45.148Z,1.77
2022-08-22T08:43:10.838Z,1.42
2022-08-22T08:48:52.750Z,1.80
2022-08-22T08:54:09.314Z,1.60
2022-08-22T08:59:25.841Z,1.65
2022-08-22T09:05:16.913Z,1.70
2022-08-22T09:10:38.599Z,1.60
2022-08-22T09:15:55.036Z,1.70
2022-08-22T09:21:16.349Z,1.70
2022-08-22T09:27:01.061Z,1.88
2022-08-22T09:32:19.424Z,1.88
2022-08-22T09:37:56.864Z,1.80
2022-08-22T09:43:21.076Z,1.90
2022-08-22T09:48:26.683Z,1.95
2022-08-22T09:53:49.355Z,1.80
2022-08-22T09:59:28.423Z,1.80
2022-08-22T10:04:54.523Z,1.70
2022-08-22T10:10:04.635Z,2.10
2022-08-22T10:15:19.385Z,1.90
2022-08-22T10:20:33.519Z,2.20
2022-08-22T10:25:44.919Z,1.98
2022-08-22T10:31:14.093Z,1.95
2022-08-22T10:36:27.885Z,1.75
2022-08-22T10:41:38.204Z,1.80
2022-08-22T21:48:41.103Z,3.03
2022-08-22T23:23:42.706Z,3.40
2022-08-22T23:33:41.910Z,3.90
